createdAt,value
2019-02-25T00:00:58.501Z,50.05
2019-02-25T00:03:28.379Z,50.25
2019-02-25T00:05:57.924Z,50.11
2019-02-25T00:08:27.660Z,50.46
2019-02-25T00:10:57.375Z,50.54
2019-02-25T00:13:26.868Z,50.95
2019-02-25T00:15:56.313Z,50.18
2019-02-25T00:18:25.801Z,50.37
2019-02-25T00:20:55.458Z,50.29
2019-02-25T00:23:24.899Z,50.02
2019-02-25T00:25:54.499Z,50.78
2019-02-25T00:28:24.041Z,49.73
2019-02-25T00:30:53.672Z,49.76
2019-02-25T00:33:23.240Z,49.28
2019-02-25T00:35:52.965Z,49.52
2019-02-25T00:38:22.430Z,50.18
2019-02-25T00:40:51.836Z,50.13
2019-02-25T00:43:21.277Z,50.58
2019-02-25T00:45:50.878Z,50.99
2019-02-25T00:48:20.629Z,50.76
2019-02-25T00:50:50.424Z,50.86
2019-02-25T00:53:19.855Z,51.02
2019-02-25T00:55:49.445Z,50.79
2019-02-25T00:58:19.261Z,51.55
2019-02-25T01:00:48.889Z,51.50
2019-02-25T01:03:18.455Z,51.48
2019-02-25T01:05:48.266Z,51.67
2019-02-25T01:08:17.973Z,51.76
2019-02-25T01:10:47.612Z,51.93
2019-02-25T01:13:17.296Z,52.53
2019-02-25T01:15:47.050Z,52.24
2019-02-25T01:18:16.616Z,53.05
2019-02-25T01:20:46.414Z,53.08
2019-02-25T01:23:15.906Z,53.00
2019-02-25T01:25:45.633Z,52.87
2019-02-25T01:28:15.295Z,53.06
2019-02-25T01:30:45.568Z,53.04
2019-02-25T01:33:15.373Z,53.97
2019-02-25T01:35:44.927Z,53.33
2019-02-25T01:38:15.688Z,53.52
2019-02-25T01:40:45.769Z,53.30
2019-02-25T01:43:15.338Z,53.90
2019-02-25T01:45:44.780Z,53.66
2019-02-25T01:48:14.506Z,53.86
2019-02-25T01:50:44.201Z,54.06
2019-02-25T01:53:13.625Z,54.58
2019-02-25T01:55:43.455Z,54.03
2019-02-25T01:58:13.303Z,54.34
2019-02-25T02:00:42.821Z,54.29
2019-02-25T02:03:12.306Z,54.37
2019-02-25T02:05:42.249Z,54.58
2019-02-25T02:08:11.730Z,54.91
2019-02-25T02:10:41.527Z,55.08
2019-02-25T02:13:14.191Z,54.99
2019-02-25T02:15:42.478Z,55.23
2019-02-25T02:18:12.271Z,56.06
2019-02-25T02:20:42.245Z,55.91
2019-02-25T02:23:11.936Z,56.40
2019-02-25T02:25:41.456Z,56.58
2019-02-25T02:28:11.126Z,56.60
2019-02-25T02:30:40.688Z,56.94
2019-02-25T02:33:10.225Z,57.41
2019-02-25T02:35:39.802Z,57.54
2019-02-25T02:38:09.492Z,58.36
2019-02-25T02:40:39.111Z,58.92
2019-02-25T02:43:08.554Z,59.90
2019-02-25T02:45:44.173Z,60.54
2019-02-25T02:48:20.277Z,61.21
2019-02-25T02:50:49.461Z,60.53
2019-02-25T02:53:18.835Z,61.29
2019-02-25T02:55:48.447Z,61.44
2019-02-25T02:58:18.084Z,61.22
2019-02-25T03:00:47.507Z,61.38
2019-02-25T03:03:16.930Z,61.70
2019-02-25T03:05:46.667Z,61.68
2019-02-25T03:08:16.194Z,61.98
2019-02-25T03:10:45.993Z,62.33
2019-02-25T03:13:15.606Z,62.58
2019-02-25T03:15:45.245Z,63.01
2019-02-25T03:18:14.718Z,62.89
2019-02-25T03:20:44.311Z,63.28
2019-02-25T03:23:13.824Z,63.60
2019-02-25T03:25:43.328Z,63.21
2019-02-25T03:28:12.934Z,63.07
2019-02-25T03:30:42.379Z,63.07
2019-02-25T03:33:12.045Z,63.13
2019-02-25T03:35:41.852Z,64.14
2019-02-25T03:38:11.433Z,64.67
2019-02-25T03:40:41.066Z,64.75
2019-02-25T03:43:10.584Z,64.61
2019-02-25T03:45:40.388Z,64.94
2019-02-25T03:48:10.108Z,65.28
2019-02-25T03:50:39.622Z,65.69
2019-02-25T03:53:09.096Z,66.03
2019-02-25T03:55:38.793Z,65.87
2019-02-25T03:58:08.595Z,65.49
2019-02-25T04:00:38.350Z,65.69
2019-02-25T04:03:07.962Z,65.64
2019-02-25T04:05:37.362Z,65.82
2019-02-25T04:08:07.110Z,65.56
2019-02-25T04:10:37.404Z,65.70
2019-02-25T04:13:07.015Z,66.05
2019-02-25T04:15:38.515Z,66.35
2019-02-25T04:18:08.031Z,67.08
2019-02-25T04:20:37.984Z,66.97
2019-02-25T04:23:07.520Z,67.04
2019-02-25T04:25:36.995Z,67.21
2019-02-25T04:28:06.617Z,67.29
2019-02-25T04:30:36.229Z,67.38
2019-02-25T04:33:06.018Z,67.58
2019-02-25T04:35:35.533Z,67.86
2019-02-25T04:38:05.234Z,67.85
2019-02-25T04:40:34.702Z,67.72
2019-02-25T04:43:04.318Z,67.95
2019-02-25T04:45:33.959Z,68.63
2019-02-25T04:48:03.580Z,69.51
2019-02-25T04:50:33.076Z,71.30
2019-02-25T04:53:02.691Z,72.96
2019-02-25T04:55:32.233Z,74.18
2019-02-25T04:58:01.644Z,73.73
2019-02-25T05:00:31.065Z,74.88
2019-02-25T05:03:00.617Z,74.99
2019-02-25T05:05:30.091Z,75.99
2019-02-25T05:07:59.731Z,76.17
2019-02-25T05:10:29.205Z,77.19
2019-02-25T05:13:00.317Z,77.35
2019-02-25T05:15:31.194Z,77.68
2019-02-25T05:18:00.644Z,78.41
2019-02-25T05:20:30.223Z,78.75
2019-02-25T05:22:59.662Z,78.76
2019-02-25T05:25:29.165Z,79.14
2019-02-25T05:27:58.727Z,79.70
2019-02-25T05:30:28.219Z,80.15
2019-02-25T05:32:57.738Z,80.47
2019-02-25T05:35:27.730Z,80.53
2019-02-25T05:37:57.470Z,81.22
2019-02-25T05:40:27.192Z,81.71
2019-02-25T05:42:56.664Z,81.59
2019-02-25T05:45:26.301Z,81.40
2019-02-25T05:47:55.795Z,81.38
2019-02-25T05:50:25.258Z,81.71
2019-02-25T05:52:54.826Z,81.67
2019-02-25T05:55:24.531Z,82.12
2019-02-25T05:57:53.965Z,82.37
2019-02-25T06:00:25.809Z,82.75
2019-02-25T06:02:55.321Z,82.39
2019-02-25T06:05:25.188Z,82.39
2019-02-25T06:07:54.883Z,82.34
2019-02-25T06:10:24.381Z,82.22
2019-02-25T06:12:53.830Z,82.33
2019-02-25T06:15:23.638Z,82.35
2019-02-25T06:17:53.273Z,82.77
2019-02-25T06:20:22.824Z,82.99
2019-02-25T06:22:52.345Z,82.80
2019-02-25T06:25:21.883Z,82.65
2019-02-25T06:27:51.597Z,82.70
2019-02-25T06:30:24.215Z,82.93
2019-02-25T06:32:54.244Z,83.13
2019-02-25T06:35:23.723Z,83.29
2019-02-25T06:37:53.173Z,82.97
2019-02-25T06:40:22.583Z,83.24
2019-02-25T06:42:52.239Z,83.00
2019-02-25T06:45:24.923Z,82.84
2019-02-25T06:47:54.428Z,82.80
2019-02-25T06:50:23.898Z,82.64
2019-02-25T06:52:53.512Z,82.29
2019-02-25T06:55:23.329Z,82.22
2019-02-25T06:57:52.845Z,82.42
2019-02-25T07:00:23.346Z,82.55
2019-02-25T07:02:52.766Z,82.43
2019-02-25T07:05:35.884Z,81.85
2019-02-25T07:08:13.238Z,82.27
2019-02-25T07:10:53.655Z,81.69
2019-02-25T07:13:27.268Z,81.37
2019-02-25T07:16:07.677Z,81.68
2019-02-25T07:18:44.798Z,81.57
2019-02-25T07:21:18.785Z,81.62
2019-02-25T07:23:59.076Z,81.53
2019-02-25T07:26:39.235Z,81.69
2019-02-25T07:29:13.400Z,81.57
2019-02-25T07:31:50.362Z,81.19
2019-02-25T07:34:24.317Z,81.16
2019-02-25T07:37:01.396Z,81.33
2019-02-25T07:39:42.019Z,81.25
2019-02-25T07:42:13.083Z,80.90
2019-02-25T07:44:44.278Z,81.31
2019-02-25T07:47:15.393Z,80.72
2019-02-25T07:49:55.443Z,80.55
2019-02-25T07:52:35.495Z,80.63
2019-02-25T07:55:17.292Z,80.94
2019-02-25T07:58:04.574Z,81.36
2019-02-25T08:00:35.821Z,81.64
2019-02-25T08:03:25.566Z,81.70
2019-02-25T08:05:56.725Z,81.40
2019-02-25T08:08:36.761Z,81.04
2019-02-25T08:11:21.808Z,81.26
2019-02-25T08:13:52.891Z,81.41
2019-02-25T08:16:23.938Z,81.06
2019-02-25T08:18:55.018Z,81.17
2019-02-25T08:21:35.107Z,81.20
2019-02-25T08:24:06.366Z,81.14
2019-02-25T08:26:40.443Z,81.23
2019-02-25T08:29:23.165Z,81.35
2019-02-25T08:31:54.323Z,81.78
2019-02-25T08:34:43.741Z,81.72
2019-02-25T08:37:27.221Z,81.76
2019-02-25T08:40:34.579Z,81.69
2019-02-25T08:43:14.064Z,81.67
2019-02-25T08:45:47.901Z,81.36
2019-02-25T08:48:33.982Z,81.38
2019-02-25T08:51:03.607Z,81.46
2019-02-25T08:53:33.095Z,81.29
2019-02-25T08:56:02.567Z,81.35
2019-02-25T08:58:32.543Z,81.35
2019-02-25T09:01:02.170Z,81.26
2019-02-25T09:03:31.717Z,80.95
2019-02-25T09:06:01.201Z,80.80
2019-02-25T09:08:30.868Z,80.41
2019-02-25T09:11:00.702Z,80.71
2019-02-25T09:13:30.175Z,80.51
2019-02-25T09:15:59.716Z,80.18
2019-02-25T09:18:29.353Z,79.90
2019-02-25T09:20:58.879Z,79.95
2019-02-25T09:23:28.469Z,79.45
2019-02-25T09:25:58.073Z,79.30
2019-02-25T09:28:27.688Z,79.25
2019-02-25T09:30:57.396Z,79.15
2019-02-25T09:33:26.874Z,79.03
2019-02-25T09:35:56.409Z,78.37
2019-02-25T09:38:26.113Z,78.17
2019-02-25T09:40:55.760Z,78.10
2019-02-25T09:43:25.405Z,77.79
2019-02-25T09:45:55.051Z,77.68
2019-02-25T09:48:24.645Z,77.57
2019-02-25T09:50:54.332Z,77.14
2019-02-25T09:53:24.092Z,76.58
2019-02-25T09:55:53.677Z,76.43
2019-02-25T09:58:23.286Z,76.66
2019-02-25T10:00:52.748Z,76.28
2019-02-25T10:03:22.215Z,75.34
2019-02-25T10:05:51.684Z,74.75
2019-02-25T10:08:21.188Z,74.98
2019-02-25T10:10:50.653Z,75.16
2019-02-25T10:13:20.068Z,74.98
2019-02-25T10:15:50.143Z,75.06
2019-02-25T10:18:19.849Z,74.42
2019-02-25T10:20:49.547Z,74.62
2019-02-25T10:23:19.097Z,74.44
2019-02-25T10:25:48.646Z,74.38
2019-02-25T10:28:18.485Z,74.72
2019-02-25T10:30:52.753Z,74.30
2019-02-25T10:33:19.125Z,73.86
2019-02-25T10:35:48.849Z,73.74
2019-02-25T10:38:19.554Z,73.13
2019-02-25T10:40:51.508Z,72.09
2019-02-25T10:43:20.646Z,71.77
2019-02-25T10:45:50.192Z,70.22
2019-02-25T10:48:21.515Z,69.70
2019-02-25T10:50:55.935Z,69.35
2019-02-25T10:53:22.303Z,69.80
2019-02-25T10:55:56.063Z,68.66
2019-02-25T10:58:26.979Z,69.36
2019-02-25T11:00:56.950Z,68.83
2019-02-25T11:03:26.561Z,69.32
2019-02-25T11:05:56.845Z,68.66
2019-02-25T11:08:27.761Z,66.34
2019-02-25T11:11:01.958Z,62.40
2019-02-25T11:13:33.593Z,60.15
2019-02-25T11:16:03.592Z,58.39
2019-02-25T11:18:33.276Z,55.77
2019-02-25T11:21:03.563Z,57.45
2019-02-25T11:23:34.430Z,56.27
2019-02-25T11:26:03.933Z,56.35
2019-02-25T11:28:34.334Z,55.01
2019-02-25T11:31:04.594Z,52.07
2019-02-25T11:33:34.427Z,52.74
2019-02-25T11:36:04.440Z,52.20
2019-02-25T11:38:37.100Z,52.54
2019-02-25T11:41:07.102Z,51.21
2019-02-25T11:43:37.026Z,50.93
2019-02-25T11:46:06.457Z,49.97
2019-02-25T11:48:36.056Z,51.84
2019-02-25T11:51:05.619Z,54.41
2019-02-25T11:53:35.139Z,56.58
2019-02-25T11:56:04.857Z,56.51
2019-02-25T11:58:34.469Z,56.02
2019-02-25T12:01:04.434Z,54.51
2019-02-25T12:03:34.139Z,53.17
2019-02-25T12:06:03.728Z,50.96
2019-02-25T12:08:33.231Z,51.44
2019-02-25T12:11:03.056Z,49.28
2019-02-25T12:13:32.564Z,47.81
2019-02-25T12:16:02.059Z,46.27
2019-02-25T12:18:31.816Z,46.48
2019-02-25T12:21:01.500Z,44.27
2019-02-25T12:23:31.255Z,43.70
2019-02-25T12:26:00.892Z,44.76
2019-02-25T12:28:30.908Z,41.79
2019-02-25T12:31:00.396Z,39.75
2019-02-25T12:33:31.294Z,39.75
2019-02-25T12:36:00.768Z,40.11
2019-02-25T12:38:30.666Z,37.49
2019-02-25T12:41:01.138Z,38.07
2019-02-25T12:43:30.713Z,37.91
2019-02-25T12:46:01.870Z,37.97
2019-02-25T12:48:32.390Z,36.04
2019-02-25T12:51:02.303Z,36.69
2019-02-25T12:53:32.593Z,36.86
2019-02-25T12:56:02.155Z,36.83
2019-02-25T12:58:31.652Z,38.18
2019-02-25T13:01:01.099Z,39.18
2019-02-25T13:03:30.515Z,40.16
2019-02-25T13:06:01.550Z,39.57
2019-02-25T13:08:31.187Z,38.82
2019-02-25T13:11:00.719Z,38.33
2019-02-25T13:13:30.367Z,39.15
2019-02-25T13:15:59.953Z,38.87
2019-02-25T13:18:31.044Z,37.88
2019-02-25T13:21:00.717Z,37.34
2019-02-25T13:23:30.394Z,36.06
2019-02-25T13:26:07.263Z,36.04
2019-02-25T13:28:33.428Z,37.59
2019-02-25T13:31:03.816Z,36.87
2019-02-25T13:33:34.165Z,37.99
2019-02-25T13:36:04.166Z,37.01
2019-02-25T13:38:33.586Z,37.61
2019-02-25T13:41:03.213Z,37.10
2019-02-25T13:43:32.872Z,37.65
2019-02-25T13:46:02.429Z,38.39
2019-02-25T13:48:32.060Z,40.32
2019-02-25T13:51:01.890Z,38.74
2019-02-25T13:53:31.530Z,39.92
2019-02-25T13:56:01.129Z,41.92
2019-02-25T13:58:30.587Z,42.83
2019-02-25T14:01:00.173Z,43.03
2019-02-25T14:03:29.596Z,41.76
2019-02-25T14:05:59.153Z,39.64
2019-02-25T14:08:28.966Z,39.33
2019-02-25T14:10:58.834Z,39.22
2019-02-25T14:13:28.360Z,39.41
2019-02-25T14:15:57.839Z,38.92
2019-02-25T14:18:27.427Z,37.93
2019-02-25T14:20:56.894Z,40.90
2019-02-25T14:23:26.384Z,42.30
2019-02-25T14:25:57.257Z,41.88
2019-02-25T14:28:30.063Z,42.62
2019-02-25T14:30:58.599Z,42.41
2019-02-25T14:33:28.230Z,43.77
2019-02-25T14:35:58.331Z,44.39
2019-02-25T14:38:29.903Z,44.54
2019-02-25T14:41:01.878Z,43.81
2019-02-25T14:43:30.655Z,45.53
2019-02-25T14:46:01.581Z,46.94
2019-02-25T14:48:32.832Z,47.18
2019-02-25T14:51:02.658Z,48.12
2019-02-25T14:53:32.085Z,48.15
2019-02-25T14:56:03.881Z,48.23
2019-02-25T14:58:35.540Z,48.53
2019-02-25T15:01:05.253Z,48.89
2019-02-25T15:03:34.841Z,48.85
2019-02-25T15:06:04.298Z,48.56
2019-02-25T15:08:34.200Z,49.06
2019-02-25T15:11:04.895Z,49.03
2019-02-25T15:13:36.903Z,49.25
2019-02-25T15:16:06.240Z,49.52
2019-02-25T15:18:36.000Z,49.58
2019-02-25T15:21:06.880Z,49.49
2019-02-25T15:23:37.181Z,50.01
2019-02-25T15:26:07.063Z,49.41
2019-02-25T15:28:37.053Z,49.71
2019-02-25T15:31:08.611Z,50.08
2019-02-25T15:33:38.612Z,50.13
2019-02-25T15:36:09.086Z,50.50
2019-02-25T15:38:39.225Z,50.67
2019-02-25T15:41:11.276Z,50.96
2019-02-25T15:43:41.103Z,51.12
2019-02-25T15:46:12.400Z,51.08
2019-02-25T15:48:43.404Z,51.36
2019-02-25T15:51:13.416Z,51.43
2019-02-25T15:53:46.213Z,52.20
2019-02-25T15:56:14.521Z,51.66
2019-02-25T15:58:44.305Z,52.26
2019-02-25T16:01:13.893Z,51.91
2019-02-25T16:03:43.346Z,52.06
2019-02-25T16:06:13.189Z,52.48
2019-02-25T16:08:42.625Z,52.48
2019-02-25T16:11:13.961Z,52.52
2019-02-25T16:13:43.685Z,53.27
2019-02-25T16:16:13.480Z,53.18
2019-02-25T16:18:42.938Z,53.24
2019-02-25T16:21:13.262Z,53.59
2019-02-25T16:23:44.836Z,53.41
2019-02-25T16:26:16.061Z,53.35
2019-02-25T16:28:46.761Z,53.28
2019-02-25T16:31:16.234Z,53.38
2019-02-25T16:33:47.064Z,53.69
2019-02-25T16:36:17.314Z,53.23
2019-02-25T16:38:46.797Z,53.13
2019-02-25T16:41:16.539Z,53.37
2019-02-25T16:43:46.258Z,53.31
2019-02-25T16:46:17.891Z,53.19
2019-02-25T16:48:48.492Z,52.87
2019-02-25T16:51:18.806Z,52.97
2019-02-25T16:53:51.822Z,52.56
2019-02-25T16:56:19.764Z,52.87
2019-02-25T16:58:50.047Z,53.05
2019-02-25T17:01:20.890Z,53.15
2019-02-25T17:03:50.412Z,53.42
2019-02-25T17:06:20.435Z,53.29
2019-02-25T17:08:51.037Z,53.37
2019-02-25T17:11:21.935Z,53.70
2019-02-25T17:13:53.022Z,54.00
2019-02-25T17:16:24.135Z,53.66
2019-02-25T17:18:53.949Z,53.93
2019-02-25T17:21:23.594Z,54.24
2019-02-25T17:23:54.101Z,54.30
2019-02-25T17:26:24.472Z,54.14
2019-02-25T17:28:54.140Z,54.50
2019-02-25T17:31:23.738Z,54.88
2019-02-25T17:33:53.967Z,54.90
2019-02-25T17:36:24.751Z,54.75
2019-02-25T17:38:55.026Z,55.01
2019-02-25T17:41:24.741Z,54.93
2019-02-25T17:43:54.894Z,55.07
2019-02-25T17:46:28.874Z,55.51
2019-02-25T17:48:59.580Z,55.36
2019-02-25T17:51:29.345Z,55.62
2019-02-25T17:53:59.099Z,56.06
2019-02-25T17:56:29.000Z,55.97
2019-02-25T17:59:01.100Z,55.93
2019-02-25T18:01:31.342Z,56.33
2019-02-25T18:04:02.529Z,56.30
2019-02-25T18:06:33.999Z,56.47
2019-02-25T18:09:05.549Z,56.78
2019-02-25T18:11:36.858Z,56.72
2019-02-25T18:14:06.479Z,57.08
2019-02-25T18:16:37.126Z,56.82
2019-02-25T18:19:09.192Z,57.24
2019-02-25T18:21:39.012Z,57.78
2019-02-25T18:24:10.036Z,58.03
2019-02-25T18:26:39.605Z,58.07
2019-02-25T18:29:09.427Z,58.58
2019-02-25T18:31:40.529Z,58.07
2019-02-25T18:34:11.283Z,58.52
2019-02-25T18:36:41.730Z,58.38
2019-02-25T18:39:13.362Z,59.19
2019-02-25T18:41:42.980Z,59.38
2019-02-25T18:44:13.528Z,58.92
2019-02-25T18:46:45.983Z,59.52
2019-02-25T18:49:15.551Z,59.63
2019-02-25T18:51:47.050Z,60.38
2019-02-25T18:54:18.632Z,60.01
2019-02-25T18:56:48.205Z,60.76
2019-02-25T18:59:18.554Z,60.38
2019-02-25T19:01:49.738Z,61.17
2019-02-25T19:04:21.769Z,61.16
2019-02-25T19:06:51.615Z,61.58
2019-02-25T19:09:23.218Z,62.24
2019-02-25T19:11:54.031Z,62.12
2019-02-25T19:14:26.353Z,62.16
2019-02-25T19:16:57.680Z,62.29
2019-02-25T19:19:26.741Z,62.78
2019-02-25T19:21:57.262Z,62.79
2019-02-25T19:24:26.229Z,62.95
2019-02-25T19:26:55.026Z,63.30
2019-02-25T19:29:26.056Z,63.46
2019-02-25T19:31:58.840Z,63.68
2019-02-25T19:34:27.737Z,64.32
2019-02-25T19:37:00.294Z,64.37
2019-02-25T19:39:28.756Z,64.49
2019-02-25T19:42:00.498Z,64.63
2019-02-25T19:44:31.871Z,64.87
2019-02-25T19:47:01.717Z,65.09
2019-02-25T19:49:31.181Z,65.71
2019-02-25T19:52:00.819Z,65.52
2019-02-25T19:54:34.163Z,65.50
2019-02-25T19:57:01.743Z,65.25
2019-02-25T19:59:31.576Z,65.58
2019-02-25T20:02:01.309Z,65.56
2019-02-25T20:04:33.434Z,65.39
2019-02-25T20:07:02.147Z,66.12
2019-02-25T20:09:31.745Z,65.99
2019-02-25T20:12:01.971Z,66.02
2019-02-25T20:14:31.885Z,66.09
2019-02-25T20:17:02.741Z,66.49
2019-02-25T20:19:32.481Z,66.85
2019-02-25T20:22:02.149Z,67.27
2019-02-25T20:24:33.190Z,67.19
2019-02-25T20:27:04.685Z,66.88
2019-02-25T20:29:35.947Z,66.77
2019-02-25T20:32:05.940Z,66.74
2019-02-25T20:34:35.495Z,66.84
2019-02-25T20:37:05.206Z,67.50
2019-02-25T20:39:35.936Z,67.64
2019-02-25T20:42:05.886Z,67.09
2019-02-25T20:44:35.478Z,67.03
2019-02-25T20:47:05.149Z,68.18
2019-02-25T20:49:34.599Z,67.68
2019-02-25T20:52:04.035Z,67.57
2019-02-25T20:54:37.872Z,67.36
2019-02-25T20:57:04.941Z,67.62
2019-02-25T20:59:35.027Z,67.48
2019-02-25T21:02:09.716Z,67.52
2019-02-25T21:04:36.760Z,67.40
2019-02-25T21:07:08.863Z,67.66
2019-02-25T21:09:40.401Z,68.30
2019-02-25T21:12:13.197Z,68.44
2019-02-25T21:14:44.864Z,69.07
2019-02-25T21:17:17.578Z,69.07
2019-02-25T21:19:47.207Z,68.93
2019-02-25T21:22:16.615Z,68.83
2019-02-25T21:24:46.301Z,68.89
2019-02-25T21:27:15.845Z,68.87
2019-02-25T21:29:45.280Z,68.69
2019-02-25T21:32:17.209Z,68.72
2019-02-25T21:34:50.892Z,68.78
2019-02-25T21:37:18.760Z,69.22
2019-02-25T21:39:48.438Z,69.29
2019-02-25T21:42:20.236Z,69.15
2019-02-25T21:44:50.735Z,69.29
2019-02-25T21:47:23.921Z,69.58
2019-02-25T21:49:52.453Z,70.17
2019-02-25T21:52:23.355Z,70.49
2019-02-25T21:54:52.793Z,70.69
2019-02-25T21:57:22.233Z,70.54
2019-02-25T21:59:51.904Z,70.93
2019-02-25T22:02:22.344Z,70.79
2019-02-25T22:04:51.887Z,70.79
2019-02-25T22:07:24.981Z,71.37
2019-02-25T22:09:52.238Z,71.56
2019-02-25T22:12:21.653Z,71.70
2019-02-25T22:14:52.186Z,71.66
2019-02-25T22:17:22.994Z,71.43
2019-02-25T22:19:51.574Z,71.35
2019-02-25T22:22:24.157Z,71.79
2019-02-25T22:24:50.959Z,72.35
2019-02-25T22:27:21.181Z,72.31
2019-02-25T22:29:50.161Z,72.66
2019-02-25T22:32:18.999Z,73.14
2019-02-25T22:34:47.947Z,73.61
2019-02-25T22:37:19.277Z,74.05
2019-02-25T22:39:48.280Z,74.44
2019-02-25T22:42:17.705Z,74.57
2019-02-25T22:44:47.928Z,74.78
2019-02-25T22:47:18.414Z,74.86
2019-02-25T22:49:47.353Z,75.03
2019-02-25T22:52:16.197Z,74.90
2019-02-25T22:54:45.812Z,75.11
2019-02-25T22:57:16.751Z,75.48
2019-02-25T22:59:45.886Z,75.37
2019-02-25T23:02:15.069Z,75.53
2019-02-25T23:04:45.171Z,75.69
2019-02-25T23:07:15.239Z,75.91
2019-02-25T23:09:45.362Z,75.71
2019-02-25T23:12:15.823Z,75.78
2019-02-25T23:14:45.720Z,76.41
2019-02-25T23:17:15.727Z,76.43
2019-02-25T23:19:45.345Z,76.61
2019-02-25T23:22:14.358Z,76.83
2019-02-25T23:24:43.863Z,76.54
2019-02-25T23:27:12.726Z,76.92
2019-02-25T23:29:41.765Z,77.35
2019-02-25T23:32:10.701Z,77.22
2019-02-25T23:34:42.625Z,77.10
2019-02-25T23:37:12.999Z,77.43
2019-02-25T23:39:41.146Z,77.68
2019-02-25T23:42:11.456Z,78.00
2019-02-25T23:44:41.269Z,77.83
2019-02-25T23:47:10.916Z,77.93
2019-02-25T23:49:41.458Z,78.24
2019-02-25T23:52:10.173Z,78.21
2019-02-25T23:54:38.975Z,78.52
2019-02-25T23:57:07.758Z,78.60
2019-02-25T23:59:40.477Z,78.69
